createdAt,value
2023-04-28T00:01:30.513Z,101583.34
2023-04-28T00:04:33.532Z,101584.28
2023-04-28T00:07:37.591Z,101579.53
2023-04-28T00:10:41.715Z,101584.13
2023-04-28T00:13:44.555Z,101579.03
2023-04-28T00:16:47.404Z,101575.66
2023-04-28T00:19:51.378Z,101571.78
2023-04-28T00:22:54.216Z,101571.78
2023-04-28T00:25:58.397Z,101561.75
2023-04-28T00:29:01.247Z,101573.47
2023-04-28T00:32:04.299Z,101578.06
2023-04-28T00:35:07.615Z,101579.28
2023-04-28T00:38:10.715Z,101571.59
2023-04-28T00:41:15.546Z,101568.59
2023-04-28T00:44:18.471Z,101563.75
2023-04-28T00:47:21.362Z,101563.50
2023-04-28T00:50:25.001Z,101559.47
2023-04-28T00:53:28.716Z,101563.03
2023-04-28T00:56:32.967Z,101548.81
2023-04-28T00:59:35.698Z,101556.19
2023-04-28T01:02:39.097Z,101559.75
2023-04-28T01:05:42.007Z,101550.56
2023-04-28T01:08:45.069Z,101555.59
2023-04-28T01:11:49.251Z,101550.19
2023-04-28T01:14:52.203Z,101542.44
2023-04-28T01:17:54.966Z,101541.50
2023-04-28T01:20:57.939Z,101543.03
2023-04-28T01:24:02.731Z,101538.44
2023-04-28T01:27:05.989Z,101533.56
2023-04-28T01:30:10.473Z,101532.53
2023-04-28T01:33:13.186Z,101518.50
2023-04-28T01:36:16.110Z,101524.13
2023-04-28T01:39:20.290Z,101524.78
2023-04-28T01:42:23.178Z,101520.59
2023-04-28T01:45:26.063Z,101523.94
2023-04-28T01:48:28.723Z,101516.00
2023-04-28T01:51:32.868Z,101517.16
2023-04-28T01:54:36.971Z,101507.28
2023-04-28T01:57:39.893Z,101515.66
2023-04-28T02:00:42.601Z,101508.81
2023-04-28T02:03:45.890Z,101509.66
2023-04-28T02:06:48.736Z,101503.19
2023-04-28T02:09:52.921Z,101509.19
2023-04-28T02:12:55.581Z,101504.81
2023-04-28T02:16:02.130Z,101502.72
2023-04-28T02:19:05.111Z,101506.88
2023-04-28T02:22:08.095Z,101508.94
2023-04-28T02:25:12.617Z,101501.44
2023-04-28T02:28:15.334Z,101500.91
2023-04-28T02:31:19.212Z,101506.47
2023-04-28T02:34:21.974Z,101501.56
2023-04-28T02:37:24.897Z,101511.59
2023-04-28T02:40:28.996Z,101499.50
2023-04-28T02:43:32.395Z,101499.69
2023-04-28T02:46:35.111Z,101490.25
2023-04-28T02:49:37.940Z,101485.16
2023-04-28T02:52:40.632Z,101494.84
2023-04-28T02:55:44.856Z,101485.69
2023-04-28T02:58:47.512Z,101483.81
2023-04-28T03:01:50.959Z,101487.94
2023-04-28T03:04:53.682Z,101481.94
2023-04-28T03:07:56.552Z,101482.19
2023-04-28T03:11:00.829Z,101481.53
2023-04-28T03:14:03.654Z,101476.75
2023-04-28T03:17:06.543Z,101479.09
2023-04-28T03:20:10.877Z,101475.03
2023-04-28T03:23:13.694Z,101476.94
2023-04-28T03:26:17.779Z,101471.13
2023-04-28T03:29:20.603Z,101467.38
2023-04-28T03:32:23.299Z,101466.41
2023-04-28T03:35:26.594Z,101467.06
2023-04-28T03:38:29.429Z,101464.34
2023-04-28T03:41:33.692Z,101461.63
2023-04-28T03:44:36.370Z,101467.88
2023-04-28T03:47:39.239Z,101459.53
2023-04-28T03:50:42.508Z,101459.00
2023-04-28T03:53:45.364Z,101464.69
2023-04-28T03:56:49.467Z,101450.75
2023-04-28T03:59:52.243Z,101446.66
2023-04-28T04:02:55.050Z,101438.72
2023-04-28T04:05:58.457Z,101444.91
2023-04-28T04:09:01.676Z,101448.50
2023-04-28T04:12:06.516Z,101444.56
2023-04-28T04:15:10.663Z,101444.22
2023-04-28T04:18:13.410Z,101441.56
2023-04-28T04:21:16.225Z,101434.28
2023-04-28T04:24:19.125Z,101439.78
2023-04-28T04:27:23.346Z,101440.88
2023-04-28T04:30:26.090Z,101435.00
2023-04-28T04:33:29.077Z,101439.22
2023-04-28T04:36:32.992Z,101435.03
2023-04-28T04:39:35.712Z,101430.66
2023-04-28T04:42:39.794Z,101428.13
2023-04-28T04:45:42.653Z,101422.44
2023-04-28T04:48:45.516Z,101418.34
2023-04-28T04:51:48.237Z,101426.63
2023-04-28T04:54:51.049Z,101413.69
2023-04-28T04:57:55.440Z,101418.53
2023-04-28T05:00:58.361Z,101412.81
2023-04-28T05:04:01.268Z,101410.84
2023-04-28T05:07:04.192Z,101412.31
2023-04-28T05:10:08.554Z,101406.81
2023-04-28T05:13:12.633Z,101403.66
2023-04-28T05:16:15.487Z,101404.25
2023-04-28T05:19:18.242Z,101404.97
2023-04-28T05:22:21.045Z,101397.25
2023-04-28T05:25:23.967Z,101400.97
2023-04-28T05:28:28.151Z,101396.44
2023-04-28T05:31:31.107Z,101391.19
2023-04-28T05:34:33.803Z,101386.09
2023-04-28T05:37:37.781Z,101387.72
2023-04-28T05:40:40.543Z,101388.94
2023-04-28T05:43:44.758Z,101383.22
2023-04-28T05:46:47.454Z,101377.69
2023-04-28T05:49:50.324Z,101378.50
2023-04-28T05:52:53.046Z,101375.19
2023-04-28T05:55:56.095Z,101370.78
2023-04-28T05:59:03.996Z,101375.53
2023-04-28T06:02:06.806Z,101365.13
2023-04-28T06:05:10.804Z,101368.59
2023-04-28T06:08:13.615Z,101360.09
2023-04-28T06:11:16.880Z,101355.50
2023-04-28T06:14:21.313Z,101359.56
2023-04-28T06:17:24.203Z,101352.38
2023-04-28T06:20:26.987Z,101352.34
2023-04-28T06:23:29.879Z,101341.25
2023-04-28T06:26:32.758Z,101357.31
2023-04-28T06:29:37.097Z,101344.56
2023-04-28T06:32:40.022Z,101335.75
2023-04-28T06:35:42.827Z,101330.09
2023-04-28T06:38:46.161Z,101338.09
2023-04-28T06:41:48.877Z,101334.72
2023-04-28T06:44:52.955Z,101338.13
2023-04-28T06:47:56.965Z,101334.50
2023-04-28T06:50:59.730Z,101333.16
2023-04-28T06:54:02.640Z,101329.88
2023-04-28T06:57:05.566Z,101326.19
2023-04-28T07:00:11.142Z,101319.91
2023-04-28T07:03:13.987Z,101313.31
2023-04-28T07:06:17.155Z,101313.38
2023-04-28T07:09:20.353Z,101313.06
2023-04-28T07:12:23.674Z,101310.09
2023-04-28T07:15:28.110Z,101297.91
2023-04-28T07:18:31.117Z,101296.81
2023-04-28T07:21:34.588Z,101297.34
2023-04-28T07:24:37.433Z,101288.78
2023-04-28T07:27:40.315Z,101290.16
2023-04-28T07:30:44.495Z,101287.88
2023-04-28T07:33:47.550Z,101274.69
2023-04-28T07:36:50.436Z,101272.78
2023-04-28T07:39:53.384Z,101281.88
2023-04-28T07:42:56.236Z,101273.53
2023-04-28T07:46:00.425Z,101264.94
2023-04-28T07:49:04.880Z,101266.72
2023-04-28T07:52:07.681Z,101265.19
2023-04-28T07:55:10.454Z,101257.41
2023-04-28T07:58:13.374Z,101259.28
2023-04-28T08:01:17.446Z,101252.50
2023-04-28T08:04:20.624Z,101254.81
2023-04-28T08:07:24.690Z,101251.63
2023-04-28T08:10:27.741Z,101248.97
2023-04-28T08:13:30.935Z,101244.53
2023-04-28T08:16:38.504Z,101252.88
2023-04-28T08:19:41.443Z,101247.00
2023-04-28T08:22:44.579Z,101244.97
2023-04-28T08:25:48.148Z,101236.50
2023-04-28T08:28:50.955Z,101233.63
2023-04-28T08:31:55.059Z,101238.47
2023-04-28T08:34:57.767Z,101235.41
2023-04-28T08:38:00.532Z,101227.97
2023-04-28T08:41:05.189Z,101224.97
2023-04-28T08:44:09.996Z,101231.03
2023-04-28T08:47:14.981Z,101227.13
2023-04-28T08:50:22.566Z,101218.06
2023-04-28T08:53:26.837Z,101215.06
2023-04-28T08:56:33.881Z,101220.63
2023-04-28T08:59:39.762Z,101209.16
2023-04-28T09:02:44.032Z,101209.84
2023-04-28T09:05:47.337Z,101193.72
2023-04-28T09:08:50.515Z,101193.56
2023-04-28T09:11:55.498Z,101193.41
2023-04-28T09:15:01.553Z,101177.75
2023-04-28T09:18:08.105Z,101184.56
2023-04-28T09:21:12.984Z,101178.97
2023-04-28T09:24:27.672Z,101171.66
2023-04-28T09:27:30.483Z,101166.38
2023-04-28T09:30:40.980Z,101170.78
2023-04-28T09:33:57.914Z,101153.56
2023-04-28T09:37:00.701Z,101158.56
2023-04-28T09:40:08.642Z,101159.56
2023-04-28T09:43:24.791Z,101160.69
2023-04-28T09:46:30.450Z,101151.63
2023-04-28T09:49:54.989Z,101148.88
2023-04-28T09:52:59.319Z,101141.00
2023-04-28T09:56:05.572Z,101156.59
2023-04-28T09:59:08.418Z,101147.19
2023-04-28T10:02:31.996Z,101144.63
2023-04-28T10:05:37.061Z,101148.22
2023-04-28T10:08:40.650Z,101136.47
2023-04-28T10:11:43.886Z,101135.84
2023-04-28T10:14:50.000Z,101124.84
2023-04-28T10:17:54.284Z,101127.28
2023-04-28T10:21:01.206Z,101119.25
2023-04-28T10:24:14.741Z,101094.72
2023-04-28T10:27:18.622Z,101112.00
2023-04-28T10:30:28.147Z,101112.31
2023-04-28T10:33:32.312Z,101106.56
2023-04-28T10:36:55.478Z,101099.75
2023-04-28T10:40:34.508Z,101089.06
2023-04-28T10:43:40.488Z,101091.41
2023-04-28T10:47:01.912Z,101085.09
2023-04-28T10:50:12.352Z,101082.13
2023-04-28T10:53:16.446Z,101088.50
2023-04-28T10:56:21.667Z,101078.97
2023-04-28T10:59:28.498Z,101078.19
2023-04-28T11:02:44.412Z,101064.53
2023-04-28T11:06:21.442Z,101061.28
2023-04-28T11:09:50.344Z,101069.53
2023-04-28T11:13:26.903Z,101059.91
2023-04-28T11:16:30.181Z,101066.59
2023-04-28T11:19:34.804Z,101066.81
2023-04-28T11:22:37.897Z,101054.69
2023-04-28T11:29:05.571Z,101049.56
2023-04-28T11:32:08.060Z,101054.38
2023-04-28T11:35:09.524Z,101056.84
2023-04-28T11:38:10.864Z,101055.00
2023-04-28T11:41:12.574Z,101046.50
2023-04-28T11:44:16.528Z,101046.97
2023-04-28T11:47:28.762Z,101049.63
2023-04-28T11:50:36.209Z,101045.53
2023-04-28T11:53:41.543Z,101043.16
2023-04-28T11:56:44.256Z,101036.38
2023-04-28T11:59:46.990Z,101031.59
2023-04-28T12:02:48.874Z,101032.78
2023-04-28T12:05:50.354Z,101037.34
2023-04-28T12:08:52.114Z,101021.72
2023-04-28T12:11:56.171Z,101023.59
2023-04-28T12:15:00.907Z,101011.56
2023-04-28T12:18:09.504Z,101011.28
2023-04-28T12:21:21.108Z,101016.22
2023-04-28T12:24:23.916Z,101011.47
2023-04-28T12:27:25.868Z,101010.00
2023-04-28T12:30:28.785Z,101010.47
2023-04-28T12:33:40.948Z,101004.41
2023-04-28T12:36:44.170Z,101002.28
2023-04-28T12:39:45.957Z,100997.66
2023-04-28T12:42:47.764Z,100994.03
2023-04-28T12:45:49.835Z,100999.19
2023-04-28T12:48:51.184Z,100996.63
2023-04-28T12:51:52.595Z,101000.94
2023-04-28T12:54:53.917Z,100986.16
2023-04-28T12:57:55.260Z,100983.75
2023-04-28T13:00:57.489Z,100981.97
2023-04-28T13:03:59.103Z,100975.91
2023-04-28T13:07:02.408Z,100976.53
2023-04-28T13:10:04.161Z,100965.59
2023-04-28T13:13:05.703Z,100971.69
2023-04-28T13:16:08.099Z,100966.53
2023-04-28T13:19:13.082Z,100966.53
2023-04-28T13:22:14.988Z,100956.00
2023-04-28T13:25:18.931Z,100947.22
2023-04-28T13:28:20.444Z,100946.66
2023-04-28T13:31:22.485Z,100941.13
2023-04-28T13:34:23.988Z,100942.69
2023-04-28T13:37:25.762Z,100934.03
2023-04-28T13:40:27.713Z,100925.19
2023-04-28T13:46:50.503Z,100934.38
2023-04-28T13:49:51.780Z,100934.88
2023-04-28T13:52:53.511Z,100927.34
2023-04-28T13:55:56.766Z,100927.44
2023-04-28T13:58:58.308Z,100918.16
2023-04-28T14:02:00.399Z,100917.34
2023-04-28T14:05:01.692Z,100917.47
2023-04-28T14:08:03.466Z,100917.28
2023-04-28T14:11:05.035Z,100916.53
2023-04-28T14:14:06.576Z,100916.31
2023-04-28T14:17:08.747Z,100916.84
2023-04-28T14:20:11.074Z,100907.22
2023-04-28T14:23:12.335Z,100911.78
2023-04-28T14:26:14.263Z,100913.78
2023-04-28T14:29:15.713Z,100907.31
2023-04-28T14:32:21.367Z,100905.34
2023-04-28T14:35:22.762Z,100898.81
2023-04-28T14:38:24.338Z,100908.38
2023-04-28T14:41:25.724Z,100891.19
2023-04-28T14:44:27.202Z,100891.94
2023-04-28T14:47:29.729Z,100888.03
2023-04-28T14:50:31.267Z,100886.91
2023-04-28T14:53:33.191Z,100887.22
2023-04-28T14:56:34.586Z,100885.19
2023-04-28T14:59:36.726Z,100872.16
2023-04-28T15:02:39.504Z,100874.16
2023-04-28T15:05:41.199Z,100863.97
2023-04-28T15:08:42.522Z,100865.63
2023-04-28T15:11:44.138Z,100862.72
2023-04-28T15:14:45.650Z,100866.28
2023-04-28T15:17:47.700Z,100868.41
2023-04-28T15:20:49.412Z,100856.56
2023-04-28T15:23:50.800Z,100852.75
2023-04-28T15:26:53.146Z,100855.19
2023-04-28T15:29:55.002Z,100852.47
2023-04-28T15:32:56.995Z,100851.84
2023-04-28T15:35:58.546Z,100858.59
2023-04-28T15:38:59.837Z,100858.03
2023-04-28T15:42:01.353Z,100858.47
2023-04-28T15:45:03.368Z,100863.59
2023-04-28T15:48:06.396Z,100853.47
2023-04-28T15:51:09.463Z,100862.75
2023-04-28T15:54:10.754Z,100858.88
2023-04-28T15:57:12.077Z,100848.03
2023-04-28T16:00:14.815Z,100857.03
2023-04-28T16:03:17.044Z,100853.34
2023-04-28T16:06:18.402Z,100850.47
2023-04-28T16:09:20.346Z,100851.81
2023-04-28T16:12:21.834Z,100847.38
2023-04-28T16:15:23.359Z,100838.06
2023-04-28T16:18:25.743Z,100842.81
2023-04-28T16:21:27.245Z,100837.97
2023-04-28T16:24:29.339Z,100849.56
2023-04-28T16:27:31.297Z,100832.13
2023-04-28T16:30:34.356Z,100845.22
2023-04-28T16:33:36.338Z,100846.34
2023-04-28T16:36:39.491Z,100843.34
2023-04-28T16:39:41.282Z,100843.59
2023-04-28T16:42:44.677Z,100841.25
2023-04-28T16:45:46.486Z,100835.13
2023-04-28T16:48:49.132Z,100830.25
2023-04-28T16:51:57.498Z,100825.94
2023-04-28T16:54:59.782Z,100830.19
2023-04-28T16:58:01.530Z,100826.91
2023-04-28T17:01:02.857Z,100830.84
2023-04-28T17:04:06.537Z,100813.13
2023-04-28T17:07:07.992Z,100820.84
2023-04-28T17:10:10.462Z,100809.78
2023-04-28T17:13:11.783Z,100813.28
2023-04-28T17:16:13.148Z,100811.97
2023-04-28T17:19:15.931Z,100811.19
2023-04-28T17:22:17.859Z,100807.75
2023-04-28T17:25:21.864Z,100818.56
2023-04-28T17:28:24.750Z,100813.00
2023-04-28T17:31:26.973Z,100815.50
2023-04-28T17:34:28.952Z,100818.44
2023-04-28T17:37:32.353Z,100814.03
2023-04-28T17:40:33.665Z,100811.56
2023-04-28T17:43:36.045Z,100819.94
2023-04-28T17:46:37.924Z,100818.59
2023-04-28T17:49:41.199Z,100821.38
2023-04-28T17:52:44.085Z,100826.38
2023-04-28T17:55:45.597Z,100815.34
2023-04-28T17:58:47.192Z,100816.47
2023-04-28T18:01:48.529Z,100810.41
2023-04-28T18:04:51.553Z,100813.47
2023-04-28T18:07:53.360Z,100820.97
2023-04-28T18:10:55.037Z,100809.66
2023-04-28T18:13:58.177Z,100811.59
2023-04-28T18:16:59.858Z,100801.97
2023-04-28T18:20:05.720Z,100805.78
2023-04-28T18:23:07.234Z,100801.97
2023-04-28T18:26:08.714Z,100794.22
2023-04-28T18:29:10.005Z,100803.91
2023-04-28T18:32:14.471Z,100794.53
2023-04-28T18:35:17.640Z,100801.97
2023-04-28T18:38:19.586Z,100796.47
2023-04-28T18:41:21.048Z,100798.13
2023-04-28T18:44:22.475Z,100790.66
2023-04-28T18:47:24.891Z,100789.56
2023-04-28T18:50:27.318Z,100794.53
2023-04-28T18:53:28.972Z,100781.56
2023-04-28T18:56:30.237Z,100784.03
2023-04-28T18:59:31.848Z,100792.88
2023-04-28T19:02:33.654Z,100794.25
2023-04-28T19:05:35.665Z,100783.22
2023-04-28T19:08:39.188Z,100786.53
2023-04-28T19:11:40.508Z,100787.09
2023-04-28T19:14:41.942Z,100778.53
2023-04-28T19:17:43.779Z,100780.19
2023-04-28T19:20:45.875Z,100785.69
2023-04-28T19:23:47.699Z,100780.47
2023-04-28T19:26:48.990Z,100781.28
2023-04-28T19:29:50.855Z,100782.69
2023-04-28T19:32:52.404Z,100784.31
2023-04-28T19:35:54.590Z,100780.47
2023-04-28T19:38:56.051Z,100779.38
2023-04-28T19:41:58.318Z,100777.44
2023-04-28T19:44:59.618Z,100773.88
2023-04-28T19:48:01.309Z,100767.81
2023-04-28T19:51:03.882Z,100775.53
2023-04-28T19:54:05.244Z,100779.09
2023-04-28T19:57:07.326Z,100773.28
2023-04-28T20:00:09.645Z,100772.75
2023-04-28T20:03:11.208Z,100775.50
2023-04-28T20:06:16.648Z,100770.00
2023-04-28T20:09:18.060Z,100769.47
2023-04-28T20:12:19.354Z,100770.28
2023-04-28T20:15:21.091Z,100768.91
2023-04-28T20:18:22.377Z,100768.63
2023-04-28T20:21:26.739Z,100765.31
2023-04-28T20:24:28.025Z,100768.34
2023-04-28T20:27:29.514Z,100757.59
2023-04-28T20:30:30.838Z,100755.94
2023-04-28T20:33:32.333Z,100750.16
2023-04-28T20:36:34.270Z,100742.97
2023-04-28T20:39:35.728Z,100737.75
2023-04-28T20:42:37.286Z,100735.84
2023-04-28T20:45:41.083Z,100730.59
2023-04-28T20:48:42.602Z,100730.03
2023-04-28T20:51:44.791Z,100722.31
2023-04-28T20:54:46.560Z,100720.97
2023-04-28T20:57:47.844Z,100704.97
2023-04-28T21:00:49.369Z,100712.13
2023-04-28T21:03:50.756Z,100721.78
2023-04-28T21:06:54.110Z,100722.06
2023-04-28T21:09:55.398Z,100717.94
2023-04-28T21:12:56.838Z,100710.75
2023-04-28T21:15:58.564Z,100712.13
2023-04-28T21:19:00.306Z,100701.94
2023-04-28T21:22:03.386Z,100702.78
2023-04-28T21:25:07.739Z,100704.16
2023-04-28T21:28:10.241Z,100702.50
2023-04-28T21:31:11.623Z,100700.00
2023-04-28T21:34:13.098Z,100703.06
2023-04-28T21:37:15.049Z,100698.63
2023-04-28T21:40:18.897Z,100703.59
2023-04-28T21:43:21.663Z,100699.75
2023-04-28T21:46:23.487Z,100694.22
2023-04-28T21:49:24.977Z,100694.50
2023-04-28T21:52:27.121Z,100688.44
2023-04-28T21:55:28.613Z,100687.34
2023-04-28T21:58:29.881Z,100689.28
2023-04-28T22:01:31.445Z,100675.22
2023-04-28T22:04:33.671Z,100673.56
2023-04-28T22:07:35.970Z,100673.00
2023-04-28T22:10:37.554Z,100679.91
2023-04-28T22:13:39.043Z,100686.50
2023-04-28T22:16:40.506Z,100669.16
2023-04-28T22:19:41.978Z,100659.25
2023-04-28T22:22:44.079Z,100663.38
2023-04-28T22:25:45.625Z,100666.94
2023-04-28T22:28:48.193Z,100667.50
2023-04-28T22:31:49.445Z,100658.41
2023-04-28T22:34:50.943Z,100663.94
2023-04-28T22:37:53.196Z,100650.69
2023-04-28T22:40:54.501Z,100647.41
2023-04-28T22:43:55.990Z,100649.59
2023-04-28T22:46:57.413Z,100649.06
2023-04-28T22:49:59.110Z,100647.41
2023-04-28T22:53:01.074Z,100650.44
2023-04-28T22:56:02.711Z,100638.59
2023-04-28T22:59:04.786Z,100642.72
2023-04-28T23:02:07.180Z,100636.69
2023-04-28T23:05:08.964Z,100644.38
2023-04-28T23:08:10.900Z,100641.91
2023-04-28T23:11:12.358Z,100643.28
2023-04-28T23:14:13.741Z,100644.66
2023-04-28T23:17:15.682Z,100632.78
2023-04-28T23:20:17.266Z,100625.91
2023-04-28T23:23:19.366Z,100627.56
2023-04-28T23:26:21.089Z,100623.72
2023-04-28T23:29:22.832Z,100620.69
2023-04-28T23:32:24.519Z,100617.66
2023-04-28T23:35:25.885Z,100610.25
2023-04-28T23:38:28.070Z,100608.31
2023-04-28T23:41:29.393Z,100610.50
2023-04-28T23:44:30.878Z,100606.38
2023-04-28T23:47:32.299Z,100604.19
2023-04-28T23:50:33.760Z,100597.81
2023-04-28T23:53:35.920Z,100595.66
2023-04-28T23:56:37.754Z,100586.81
2023-04-28T23:59:39.327Z,100580.22
